Dawson, Canada
Current Conditions -  °F | °C
As of 1:53 PM on Friday 24 Oct 2014 (Local Time) from PAEG Reporting Station
Overcast Overcast  
Wind Chill: 22°   Ceiling: 9000
Heat Index: 22°   Visibility: 10mi
Dew Point: 17°   Wind: 0mph
Humidity: 82%   Direction: NA
Pressure: 29.81"   Gusts: NA
Location:  64.05°N, 139.13°W
Report Text: PAEG 242053Z AUTO 00000KT 10SM OVC090 M06/M08 A2981 RMK AO2 SLP109 60000 T10561083 50005 TSNO
Loading
Personal Weather Stations






























Interactive Weather Map
Tropical Storm Tracking
New forecast layout! Learn more

10-Day Weather Forecast

Advertisements
Track Severe Weather on mobile